TFM - Tactical Decision Aid
ID: Runway Winds: CIG/VIS Threshold:

KLAR - Laramie Rgnl, WY, US

Updated at: 1113 UTC 23 Jun 2021
Latest TAF at: 0545 UTC 23 Jun 2021

TAF Board

Time1053Z 23/12Z 23/13Z 23/14Z 23/15Z 23/16Z 23/17Z 23/18Z 23/19Z 23/20Z 23/21Z 23/22Z 23/23Z 24/00Z>>
Type OBS PRVL PRVL PRVL PRVL PRVL PRVL PRVL PRVL PRVL PRVL PRVL PRVL PRVL
VIS 10 >6 >6 >6 >6 >6 >6 >6 >6 >6 >6 >6 >6 >6
CIG -- -- -- -- -- -- -- -- -- -- -- -- -- --
Cover CLR FEW FEW FEW FEW FEW FEW FEW SCT SCT SCT SCT SCT SCT
FltCat VFR VFR VFR VFR VFR VFR VFR VFR VFR VFR VFR VFR VFR VFR
WX -- -- -- -- -- -- -- -- VCSH VCSH VCSH VCSH VCSH VCSH
WDir 140 210 210 210 210 210 210 210 260 260 260 260 260 260
WSpd 6 7 7 7 7 7 7 7 15 15 15 15 15 15
WGst -- -- -- -- -- -- -- -- 25 25 25 25 25 25

TDA Impact Legend

  None Marginal Slight Moderate High
Visibility (sm) >5 3≤X≤5 2≤X<3 1≤X<2 <1
Ceiling (100 ft) >30 10≤X≤30 8≤X<10 3≤X<8 <3
Wind Speed (kt) <15 15≤X<25 25≤X<30 ≥30
Wind Gust (kt) <15 15≤X<25 25≤X<35 ≥35
Weather No Wx Reported VCTS -TS,-FZRA TS,FZRA +TS,+FZRA
TAF
KLAR 230545Z 2306/2406 21007KT P6SM FEW150
  FM231900 26015G25KT P6SM VCSH SCT100
  FM240100 25012KT P6SM BKN250


METAR
KLAR 231053Z AUTO 14006KT 10SM CLR 10/M01 A3009 RMK AO2 SLP070 T01001006 $
KLAR 230953Z AUTO 20007KT 10SM CLR 12/M01 A3007 RMK AO2 SLP057 T01171006 $
KLAR 230853Z AUTO 20011KT 10SM CLR 14/M01 A3006 RMK AO2 SLP045 T01441006 56006 $
KLAR 230753Z AUTO 22006KT 10SM CLR 13/01 A3006 RMK AO2 SLP051 T01330006 $

Radar Display
Forecast Discussion